createdAt,value
2023-01-19T00:01:38.835Z,10.02
2023-01-19T00:04:06.760Z,12.17
2023-01-19T00:06:36.017Z,8.75
2023-01-19T00:09:04.123Z,10.18
2023-01-19T00:11:31.846Z,12.65
2023-01-19T00:13:59.457Z,11.65
2023-01-19T00:16:27.386Z,10.17
2023-01-19T00:18:55.701Z,11.38
2023-01-19T00:21:23.331Z,9.35
2023-01-19T00:23:52.765Z,11.73
2023-01-19T00:26:22.431Z,12.52
2023-01-19T00:28:57.334Z,11.07
2023-01-19T00:31:25.335Z,13.43
2023-01-19T00:33:53.082Z,12.80
2023-01-19T00:36:20.778Z,12.80
2023-01-19T00:38:48.660Z,12.68
2023-01-19T00:41:17.627Z,13.00
2023-01-19T00:43:44.362Z,13.80
2023-01-19T00:46:12.071Z,13.90
2023-01-19T00:48:39.710Z,13.20
2023-01-19T00:51:07.302Z,13.60
2023-01-19T00:53:35.055Z,13.57
2023-01-19T00:56:02.649Z,13.38
2023-01-19T00:58:31.627Z,9.30
2023-01-19T01:01:03.907Z,12.15
2023-01-19T01:03:31.641Z,11.52
2023-01-19T01:05:59.283Z,10.83
2023-01-19T01:08:27.027Z,14.57
2023-01-19T01:10:55.627Z,10.75
2023-01-19T01:13:26.215Z,10.55
2023-01-19T01:15:57.619Z,13.73
2023-01-19T01:18:26.207Z,10.43
2023-01-19T01:20:56.230Z,12.65
2023-01-19T01:23:24.168Z,13.43
2023-01-19T01:25:52.131Z,10.93
2023-01-19T01:28:19.701Z,11.95
2023-01-19T01:30:47.748Z,11.43
2023-01-19T01:33:40.835Z,9.75
2023-01-19T01:36:04.791Z,9.95
2023-01-19T01:38:32.508Z,13.15
2023-01-19T01:41:00.053Z,9.65
2023-01-19T01:43:43.950Z,11.80
2023-01-19T01:46:15.466Z,10.23
2023-01-19T01:48:46.073Z,11.25
2023-01-19T01:51:25.289Z,12.43
2023-01-19T01:53:56.675Z,10.30
2023-01-19T01:56:29.422Z,10.07
2023-01-19T01:58:57.822Z,13.60
2023-01-19T02:01:42.873Z,16.00
2023-01-19T02:04:12.018Z,9.35
2023-01-19T02:06:57.271Z,9.70
2023-01-19T02:09:43.336Z,11.93
2023-01-19T02:12:28.526Z,9.00
2023-01-19T02:14:56.525Z,12.05
2023-01-19T02:17:24.462Z,8.57
2023-01-19T02:19:53.899Z,11.23
2023-01-19T02:22:28.467Z,8.43
2023-01-19T02:24:58.887Z,10.73
2023-01-19T02:27:26.580Z,11.48
2023-01-19T02:29:54.423Z,7.63
2023-01-19T02:32:21.971Z,11.77
2023-01-19T02:34:49.604Z,10.87
2023-01-19T02:37:18.537Z,12.80
2023-01-19T02:39:50.672Z,8.55
2023-01-19T02:42:21.119Z,11.90
2023-01-19T02:44:49.882Z,10.75
2023-01-19T02:47:17.519Z,11.33
2023-01-19T02:49:45.184Z,11.73
2023-01-19T02:52:15.932Z,8.27
2023-01-19T02:54:49.328Z,11.15
2023-01-19T02:57:29.534Z,10.00
2023-01-19T03:00:08.069Z,16.87
2023-01-19T03:02:39.941Z,12.93
2023-01-19T03:05:14.504Z,12.18
2023-01-19T03:07:47.792Z,10.77
2023-01-19T03:10:18.755Z,10.63
2023-01-19T03:12:51.815Z,10.13
2023-01-19T03:15:22.715Z,11.95
2023-01-19T03:17:51.236Z,13.70
2023-01-19T03:20:22.030Z,10.35
2023-01-19T03:22:50.819Z,8.98
2023-01-19T03:25:19.454Z,11.03
2023-01-19T03:27:49.725Z,9.18
2023-01-19T03:30:20.329Z,14.00
2023-01-19T03:32:50.800Z,10.88
2023-01-19T03:35:20.808Z,8.63
2023-01-19T03:37:49.660Z,13.10
2023-01-19T03:40:17.597Z,11.45
2023-01-19T03:42:56.047Z,9.93
2023-01-19T03:45:25.057Z,8.77
2023-01-19T03:47:52.868Z,9.75
2023-01-19T03:50:25.323Z,12.23
2023-01-19T03:53:01.457Z,9.77
2023-01-19T03:55:30.228Z,10.30
2023-01-19T03:57:59.674Z,8.07
2023-01-19T04:00:29.377Z,9.00
2023-01-19T04:02:59.525Z,8.27
2023-01-19T04:05:30.484Z,9.52
2023-01-19T04:07:58.423Z,11.57
2023-01-19T04:10:26.080Z,7.50
2023-01-19T04:13:00.988Z,12.15
2023-01-19T04:15:31.024Z,13.37
2023-01-19T04:17:58.754Z,11.77
2023-01-19T04:20:27.282Z,10.32
2023-01-19T04:22:54.927Z,8.50
2023-01-19T04:25:22.537Z,9.30
2023-01-19T04:27:52.656Z,10.10
2023-01-19T04:30:24.264Z,8.07
2023-01-19T04:32:53.782Z,14.20
2023-01-19T04:35:21.335Z,12.43
2023-01-19T04:37:49.012Z,9.43
2023-01-19T04:40:16.960Z,10.07
2023-01-19T04:42:45.104Z,12.57
2023-01-19T04:45:13.295Z,12.88
2023-01-19T04:47:45.923Z,11.60
2023-01-19T04:50:15.197Z,9.93
2023-01-19T04:52:42.834Z,12.53
2023-01-19T04:55:11.022Z,12.50
2023-01-19T04:57:38.592Z,12.10
2023-01-19T05:00:07.523Z,13.18
2023-01-19T05:02:39.637Z,10.77
2023-01-19T05:05:07.445Z,14.10
2023-01-19T05:07:36.404Z,11.48
2023-01-19T05:10:04.239Z,11.18
2023-01-19T05:12:31.875Z,13.70
2023-01-19T05:14:59.424Z,11.82
2023-01-19T05:17:27.108Z,9.57
2023-01-19T05:19:55.066Z,11.77
2023-01-19T05:22:22.585Z,12.10
2023-01-19T05:24:51.600Z,12.40
2023-01-19T05:27:19.388Z,13.13
2023-01-19T05:29:47.019Z,13.17
2023-01-19T05:32:14.868Z,11.90
2023-01-19T05:34:42.549Z,10.88
2023-01-19T05:37:10.064Z,14.93
2023-01-19T05:39:39.461Z,11.57
2023-01-19T05:42:09.409Z,15.03
2023-01-19T05:44:37.008Z,11.43
2023-01-19T05:47:04.753Z,12.32
2023-01-19T05:49:32.387Z,17.65
2023-01-19T05:51:59.951Z,11.68
2023-01-19T05:54:28.665Z,11.27
2023-01-19T05:56:56.358Z,13.35
2023-01-19T05:59:25.445Z,13.40
2023-01-19T06:01:53.447Z,13.98
2023-01-19T06:04:21.926Z,15.18
2023-01-19T06:06:49.712Z,14.43
2023-01-19T06:09:18.362Z,13.63
2023-01-19T06:11:46.361Z,15.25
2023-01-19T06:14:14.047Z,12.80
2023-01-19T06:16:46.155Z,15.05
2023-01-19T06:19:13.863Z,14.67
2023-01-19T06:21:41.458Z,14.70
2023-01-19T06:24:09.131Z,13.95
2023-01-19T06:26:37.401Z,15.15
2023-01-19T06:29:04.964Z,12.15
2023-01-19T06:31:32.770Z,15.70
2023-01-19T06:34:01.837Z,16.42
2023-01-19T06:36:29.764Z,16.63
2023-01-19T06:38:57.498Z,14.77
2023-01-19T06:41:25.198Z,11.90
2023-01-19T06:43:52.736Z,14.97
2023-01-19T06:46:20.638Z,13.90
2023-01-19T06:48:48.319Z,13.20
2023-01-19T06:51:17.286Z,12.85
2023-01-19T06:53:45.267Z,16.50
2023-01-19T06:56:13.018Z,11.20
2023-01-19T06:58:42.608Z,15.18
2023-01-19T07:01:10.787Z,15.88
2023-01-19T07:03:40.583Z,13.65
2023-01-19T07:06:08.382Z,16.23
2023-01-19T07:08:38.305Z,13.77
2023-01-19T07:11:25.108Z,14.77
2023-01-19T07:13:55.589Z,13.73
2023-01-19T07:16:24.976Z,17.45
2023-01-19T07:18:52.714Z,13.52
2023-01-19T07:21:20.431Z,15.80
2023-01-19T07:23:50.604Z,13.95
2023-01-19T07:26:19.848Z,15.20
2023-01-19T07:28:48.315Z,15.15
2023-01-19T07:31:16.835Z,13.25
2023-01-19T07:33:44.614Z,13.07
2023-01-19T07:38:59.055Z,21.02
2023-01-19T07:41:26.647Z,22.83
2023-01-19T07:43:54.271Z,18.75
2023-01-19T07:46:22.051Z,15.57
2023-01-19T07:48:50.161Z,19.35
2023-01-19T07:51:18.887Z,15.82
2023-01-19T07:53:57.053Z,13.55
2023-01-19T07:56:28.045Z,13.80
2023-01-19T07:58:56.298Z,14.67
2023-01-19T08:01:24.072Z,14.43
2023-01-19T08:03:53.171Z,13.45
2023-01-19T08:06:22.328Z,17.67
2023-01-19T08:08:50.332Z,12.38
2023-01-19T08:11:17.946Z,10.63
2023-01-19T08:13:47.151Z,13.38
2023-01-19T08:16:14.772Z,11.95
2023-01-19T08:18:42.590Z,11.35
2023-01-19T08:21:10.546Z,10.88
2023-01-19T08:23:38.163Z,10.90
2023-01-19T08:26:18.440Z,15.02
2023-01-19T08:28:47.423Z,13.48
2023-01-19T08:31:21.784Z,15.40
2023-01-19T08:33:51.731Z,11.75
2023-01-19T08:36:19.393Z,11.00
2023-01-19T08:38:47.268Z,11.68
2023-01-19T08:41:16.570Z,11.10
2023-01-19T08:43:44.691Z,9.85
2023-01-19T08:46:18.776Z,14.38
2023-01-19T08:48:48.302Z,13.17
2023-01-19T08:51:16.294Z,11.90
2023-01-19T08:53:44.208Z,12.65
2023-01-19T08:56:14.082Z,12.45
2023-01-19T08:58:42.121Z,14.90
2023-01-19T09:01:11.268Z,14.67
2023-01-19T09:03:40.563Z,12.40
2023-01-19T09:06:08.483Z,13.07
2023-01-19T09:08:36.057Z,11.02
2023-01-19T09:11:05.260Z,9.68
2023-01-19T09:13:33.911Z,14.20
2023-01-19T09:16:03.291Z,10.02
2023-01-19T09:18:31.396Z,13.00
2023-01-19T09:21:00.733Z,13.45
2023-01-19T09:23:29.158Z,10.60
2023-01-19T09:25:58.377Z,12.30
2023-01-19T09:28:26.514Z,10.40
2023-01-19T09:30:54.384Z,11.05
2023-01-19T09:33:22.393Z,12.98
2023-01-19T09:35:51.824Z,12.05
2023-01-19T09:38:22.482Z,11.07
2023-01-19T09:40:51.806Z,14.38
2023-01-19T09:43:23.137Z,14.18
2023-01-19T09:45:53.307Z,17.80
2023-01-19T09:48:27.844Z,19.27
2023-01-19T09:50:57.510Z,17.93
2023-01-19T09:53:31.246Z,21.45
2023-01-19T09:55:58.910Z,19.48
2023-01-19T09:58:26.896Z,18.70
2023-01-19T10:01:00.059Z,16.23
2023-01-19T10:03:27.990Z,19.40
2023-01-19T10:05:57.436Z,18.85
2023-01-19T10:08:27.308Z,13.80
2023-01-19T10:10:58.420Z,18.52
2023-01-19T10:13:30.266Z,17.92
2023-01-19T10:16:02.359Z,13.73
2023-01-19T10:18:40.482Z,14.68
2023-01-19T10:21:12.051Z,15.02
2023-01-19T10:23:41.785Z,12.98
2023-01-19T10:26:13.071Z,15.40
2023-01-19T10:28:41.814Z,15.17
2023-01-19T10:31:10.295Z,12.45
2023-01-19T10:33:38.114Z,14.00
2023-01-19T10:36:06.482Z,11.77
2023-01-19T10:38:35.234Z,14.35
2023-01-19T10:41:04.637Z,13.80
2023-01-19T10:43:41.679Z,13.48
2023-01-19T10:46:19.148Z,15.18
2023-01-19T10:48:48.967Z,15.70
2023-01-19T10:51:18.017Z,15.48
2023-01-19T10:53:57.094Z,12.17
2023-01-19T10:56:26.330Z,11.45
2023-01-19T10:58:55.247Z,13.00
2023-01-19T11:01:23.829Z,13.52
2023-01-19T11:03:54.012Z,12.50
2023-01-19T11:06:28.047Z,9.93
2023-01-19T11:09:11.919Z,10.65
2023-01-19T11:11:44.050Z,13.60
2023-01-19T11:14:14.051Z,13.98
2023-01-19T11:16:42.175Z,9.43
2023-01-19T11:19:18.183Z,13.43
2023-01-19T11:21:45.734Z,9.32
2023-01-19T11:24:14.861Z,11.60
2023-01-19T11:26:43.936Z,7.82
2023-01-19T11:29:17.496Z,10.35
2023-01-19T11:31:45.732Z,11.30
2023-01-19T11:34:33.316Z,10.35
2023-01-19T11:37:02.368Z,11.52
2023-01-19T11:39:31.140Z,9.73
2023-01-19T11:41:59.865Z,9.00
2023-01-19T11:44:32.492Z,8.30
2023-01-19T11:47:01.164Z,9.02
2023-01-19T11:49:32.467Z,7.50
2023-01-19T11:52:03.277Z,13.52
2023-01-19T11:54:32.887Z,9.13
2023-01-19T11:57:01.914Z,10.53
2023-01-19T11:59:30.978Z,7.15
2023-01-19T12:02:00.160Z,9.05
2023-01-19T12:04:30.738Z,9.80
2023-01-19T12:07:00.198Z,10.85
2023-01-19T12:09:29.296Z,7.53
2023-01-19T12:12:00.297Z,8.82
2023-01-19T12:14:31.555Z,9.93
2023-01-19T12:17:02.085Z,11.25
2023-01-19T12:19:36.957Z,8.27
2023-01-19T12:22:05.748Z,6.87
2023-01-19T12:24:35.923Z,9.10
2023-01-19T12:27:09.176Z,13.43
2023-01-19T12:29:37.058Z,11.27
2023-01-19T12:32:20.065Z,6.88
2023-01-19T12:34:51.037Z,6.73
2023-01-19T12:37:36.734Z,6.45
2023-01-19T12:40:06.871Z,7.22
2023-01-19T12:42:34.782Z,5.03
2023-01-19T12:45:09.784Z,7.85
2023-01-19T12:47:38.788Z,9.53
2023-01-19T12:50:08.288Z,7.43
2023-01-19T12:52:40.577Z,10.02
2023-01-19T12:55:18.265Z,8.07
2023-01-19T12:57:50.624Z,6.57
2023-01-19T13:00:30.125Z,6.97
2023-01-19T13:02:59.889Z,8.15
2023-01-19T13:05:52.556Z,10.77
2023-01-19T13:08:24.499Z,5.85
2023-01-19T13:10:56.962Z,7.60
2023-01-19T13:13:27.038Z,7.60
2023-01-19T13:15:56.037Z,8.30
2023-01-19T13:18:26.540Z,6.72
2023-01-19T13:20:55.684Z,9.38
2023-01-19T13:23:25.069Z,4.82
2023-01-19T13:25:54.521Z,10.03
2023-01-19T13:28:26.999Z,6.97
2023-01-19T13:30:56.852Z,5.88
2023-01-19T13:33:27.862Z,4.50
2023-01-19T13:35:58.692Z,4.15
2023-01-19T13:38:27.151Z,5.33
2023-01-19T13:40:55.855Z,6.18
2023-01-19T13:43:26.345Z,5.25
2023-01-19T13:45:54.792Z,4.65
2023-01-19T13:48:23.329Z,3.55
2023-01-19T13:51:00.699Z,4.53
2023-01-19T13:53:29.813Z,5.20
2023-01-19T13:56:09.953Z,6.72
2023-01-19T13:58:37.804Z,5.07
2023-01-19T14:01:05.380Z,3.67
2023-01-19T14:03:33.812Z,5.80
2023-01-19T14:06:03.296Z,4.65
2023-01-19T14:08:32.888Z,4.15
2023-01-19T14:11:02.241Z,3.08
2023-01-19T14:13:32.477Z,5.45
2023-01-19T14:16:01.000Z,7.63
2023-01-19T14:18:32.054Z,6.47
2023-01-19T14:21:01.759Z,5.20
2023-01-19T14:23:41.458Z,6.95
2023-01-19T14:26:24.703Z,6.65
2023-01-19T14:28:52.590Z,4.43
2023-01-19T14:31:21.569Z,6.68
2023-01-19T14:33:50.111Z,4.22
2023-01-19T14:36:29.002Z,6.72
2023-01-19T14:38:59.789Z,5.63
2023-01-19T14:41:30.161Z,5.50
2023-01-19T14:43:58.748Z,3.17
2023-01-19T14:46:26.947Z,4.30
2023-01-19T14:49:03.971Z,4.47
2023-01-19T14:51:32.044Z,3.55
2023-01-19T14:54:02.238Z,7.27
2023-01-19T14:56:31.421Z,4.15
2023-01-19T14:58:59.868Z,7.72
2023-01-19T15:01:31.634Z,6.05
2023-01-19T15:03:59.424Z,4.30
2023-01-19T15:06:27.964Z,6.20
2023-01-19T15:08:56.520Z,7.43
2023-01-19T15:11:28.451Z,7.65
2023-01-19T15:13:56.777Z,5.88
2023-01-19T15:16:24.721Z,9.88
2023-01-19T15:18:52.666Z,5.30
2023-01-19T15:21:23.222Z,9.30
2023-01-19T15:23:50.957Z,6.10
2023-01-19T15:26:20.748Z,3.88
2023-01-19T15:28:50.046Z,6.05
2023-01-19T15:31:19.008Z,6.53
2023-01-19T15:33:46.810Z,9.80
2023-01-19T15:36:17.669Z,5.18
2023-01-19T15:38:45.768Z,6.88
2023-01-19T15:41:14.858Z,6.75
2023-01-19T15:43:42.431Z,5.40
2023-01-19T15:46:12.603Z,8.60
2023-01-19T15:48:40.672Z,6.82
2023-01-19T15:51:12.870Z,11.65
2023-01-19T15:53:42.672Z,7.85
2023-01-19T15:56:14.438Z,5.50
2023-01-19T15:58:41.982Z,8.80
2023-01-19T16:01:13.392Z,5.22
2023-01-19T16:03:41.049Z,6.03
2023-01-19T16:06:08.808Z,3.65
2023-01-19T16:08:36.872Z,5.30
2023-01-19T16:11:05.053Z,8.27
2023-01-19T16:13:36.859Z,4.93
2023-01-19T16:16:04.884Z,6.28
2023-01-19T16:18:33.905Z,5.40
2023-01-19T16:21:01.961Z,4.00
2023-01-19T16:23:31.111Z,6.25
2023-01-19T16:25:59.853Z,6.43
2023-01-19T16:28:28.227Z,11.25
2023-01-19T16:30:56.010Z,9.30
2023-01-19T16:33:28.000Z,7.60
2023-01-19T16:35:57.013Z,11.88
2023-01-19T16:38:24.964Z,6.95
2023-01-19T16:40:52.686Z,8.73
2023-01-19T16:43:20.258Z,8.05
2023-01-19T16:45:58.274Z,5.67
2023-01-19T16:48:28.120Z,6.57
2023-01-19T16:51:01.160Z,8.15
2023-01-19T16:53:29.209Z,7.07
2023-01-19T16:55:58.662Z,6.45
2023-01-19T16:58:26.368Z,5.77
2023-01-19T17:00:54.774Z,7.95
2023-01-19T17:03:22.439Z,9.10
2023-01-19T17:05:50.774Z,10.43
2023-01-19T17:08:20.378Z,7.25
2023-01-19T17:10:48.035Z,8.37
2023-01-19T17:13:15.935Z,9.90
2023-01-19T17:15:44.138Z,8.40
2023-01-19T17:18:11.724Z,6.53
2023-01-19T17:20:44.657Z,8.38
2023-01-19T17:23:12.827Z,7.73
2023-01-19T17:25:41.927Z,10.20
2023-01-19T17:28:09.585Z,5.90
2023-01-19T17:30:37.276Z,5.95
2023-01-19T17:33:04.883Z,6.85
2023-01-19T17:35:34.877Z,8.10
2023-01-19T17:38:04.343Z,5.80
2023-01-19T17:40:32.093Z,7.15
2023-01-19T17:43:01.528Z,8.63
2023-01-19T17:45:29.152Z,8.70
2023-01-19T17:47:56.722Z,6.13
2023-01-19T17:50:24.510Z,6.22
2023-01-19T17:52:52.792Z,5.60
2023-01-19T17:55:20.339Z,5.82
2023-01-19T17:57:48.094Z,8.20
2023-01-19T18:00:18.048Z,8.40
2023-01-19T18:02:45.806Z,6.53
2023-01-19T18:05:14.299Z,7.28
2023-01-19T18:07:42.906Z,11.05
2023-01-19T18:10:11.166Z,10.88
2023-01-19T18:12:38.978Z,5.83
2023-01-19T18:15:07.031Z,8.75
2023-01-19T18:17:36.067Z,9.15
2023-01-19T18:20:03.767Z,10.27
2023-01-19T18:22:32.154Z,10.27
2023-01-19T18:25:01.579Z,12.03
2023-01-19T18:27:30.320Z,9.18
2023-01-19T18:29:58.543Z,10.73
2023-01-19T18:32:27.311Z,11.80
2023-01-19T18:34:57.830Z,12.05
2023-01-19T18:37:25.456Z,8.17
2023-01-19T18:39:54.896Z,8.00
2023-01-19T18:42:22.633Z,5.22
2023-01-19T18:44:50.226Z,10.00
2023-01-19T18:47:17.761Z,8.20
2023-01-19T18:49:45.609Z,8.30
2023-01-19T18:52:14.495Z,6.88
2023-01-19T18:54:42.084Z,9.27
2023-01-19T18:57:09.783Z,6.65
2023-01-19T18:59:37.319Z,9.82
2023-01-19T19:02:06.796Z,7.67
2023-01-19T19:04:34.608Z,7.18
2023-01-19T19:07:02.139Z,12.10
2023-01-19T19:09:31.535Z,9.70
2023-01-19T19:11:59.415Z,6.45
2023-01-19T19:14:26.990Z,9.43
2023-01-19T19:16:55.351Z,7.30
2023-01-19T19:19:23.062Z,9.00
2023-01-19T19:21:52.156Z,6.50
2023-01-19T19:24:19.753Z,8.73
2023-01-19T19:26:50.842Z,5.83
2023-01-19T19:29:18.482Z,8.02
2023-01-19T19:31:46.163Z,9.63
2023-01-19T19:34:13.933Z,8.18
2023-01-19T19:36:42.079Z,7.70
2023-01-19T19:39:09.779Z,7.67
2023-01-19T19:41:38.810Z,6.75
2023-01-19T19:44:08.988Z,10.52
2023-01-19T19:46:38.578Z,7.38
2023-01-19T19:49:06.238Z,9.00
2023-01-19T19:51:35.258Z,8.20
2023-01-19T19:54:06.851Z,7.28
2023-01-19T19:56:34.952Z,10.98
2023-01-19T19:59:04.671Z,9.20
2023-01-19T20:01:34.283Z,8.63
2023-01-19T20:04:05.806Z,7.93
2023-01-19T20:06:38.525Z,7.55
2023-01-19T20:09:07.514Z,7.30
2023-01-19T20:11:35.854Z,6.18
2023-01-19T20:14:05.645Z,7.90
2023-01-19T20:16:34.817Z,6.17
2023-01-19T20:19:02.870Z,6.28
2023-01-19T20:21:31.146Z,7.85
2023-01-19T20:24:01.268Z,8.18
2023-01-19T20:26:30.208Z,6.95
2023-01-19T20:28:59.718Z,9.37
2023-01-19T20:31:29.458Z,5.60
2023-01-19T20:33:59.571Z,5.82
2023-01-19T20:36:29.238Z,6.55
2023-01-19T20:38:57.130Z,7.80
2023-01-19T20:41:26.920Z,9.00
2023-01-19T20:43:54.692Z,6.20
2023-01-19T20:46:22.623Z,10.65
2023-01-19T20:48:53.631Z,8.63
2023-01-19T20:51:23.202Z,6.82
2023-01-19T20:53:50.858Z,6.13
2023-01-19T20:56:18.454Z,7.95
2023-01-19T20:58:46.428Z,5.78
2023-01-19T21:01:15.310Z,6.75
2023-01-19T21:03:43.581Z,9.88
2023-01-19T21:06:11.694Z,9.43
2023-01-19T21:08:43.295Z,7.50
2023-01-19T21:11:11.344Z,14.18
2023-01-19T21:13:39.000Z,11.40
2023-01-19T21:16:06.987Z,11.82
2023-01-19T21:18:34.679Z,11.53
2023-01-19T21:21:07.946Z,11.35
2023-01-19T21:23:37.082Z,15.27
2023-01-19T21:26:07.013Z,15.68
2023-01-19T21:28:34.514Z,12.48
2023-01-19T21:31:06.185Z,10.33
2023-01-19T21:33:34.026Z,10.15
2023-01-19T21:36:01.539Z,12.00
2023-01-19T21:38:30.299Z,8.23
2023-01-19T21:40:59.456Z,9.98
2023-01-19T21:43:28.839Z,11.93
2023-01-19T21:45:56.671Z,9.43
2023-01-19T21:48:24.332Z,8.98
2023-01-19T21:50:58.825Z,8.40
2023-01-19T21:53:26.674Z,8.55
2023-01-19T21:55:54.423Z,8.40
2023-01-19T21:58:22.544Z,6.88
2023-01-19T22:00:51.739Z,8.80
2023-01-19T22:03:19.442Z,11.20
2023-01-19T22:05:47.094Z,8.48
2023-01-19T22:08:15.052Z,10.73
2023-01-19T22:10:42.629Z,5.22
2023-01-19T22:13:10.460Z,6.43
2023-01-19T22:15:38.175Z,5.57
2023-01-19T22:18:07.123Z,7.40
2023-01-19T22:20:35.017Z,5.57
2023-01-19T22:23:02.699Z,4.57
2023-01-19T22:25:30.275Z,6.15
2023-01-19T22:27:58.663Z,5.68
2023-01-19T22:30:26.746Z,7.10
2023-01-19T22:32:54.541Z,5.80
2023-01-19T22:35:23.478Z,6.50
2023-01-19T22:37:51.176Z,5.40
2023-01-19T22:40:18.935Z,6.93
2023-01-19T22:42:46.986Z,7.70
2023-01-19T22:45:15.215Z,5.77
2023-01-19T22:47:45.800Z,11.02
2023-01-19T22:50:13.600Z,8.43
2023-01-19T22:52:42.603Z,10.55
2023-01-19T22:55:11.024Z,9.48
2023-01-19T22:57:43.091Z,6.80
2023-01-19T23:00:11.600Z,8.00
2023-01-19T23:02:39.276Z,9.57
2023-01-19T23:05:07.444Z,5.32
2023-01-19T23:07:35.454Z,8.38
2023-01-19T23:10:04.667Z,6.27
2023-01-19T23:12:32.473Z,5.95
2023-01-19T23:15:00.180Z,4.70
2023-01-19T23:17:28.000Z,6.88
2023-01-19T23:19:55.547Z,7.20
2023-01-19T23:22:23.358Z,10.40
2023-01-19T23:24:51.019Z,7.13
2023-01-19T23:27:20.111Z,6.22
2023-01-19T23:29:47.850Z,8.75
2023-01-19T23:32:15.484Z,8.13
2023-01-19T23:34:43.301Z,9.47
2023-01-19T23:37:11.265Z,6.95
2023-01-19T23:39:43.976Z,5.95
2023-01-19T23:42:11.831Z,6.07
2023-01-19T23:44:42.043Z,6.82
2023-01-19T23:47:09.622Z,6.80
2023-01-19T23:49:39.599Z,9.02
2023-01-19T23:52:07.662Z,5.57
2023-01-19T23:54:35.297Z,5.40
2023-01-19T23:57:02.903Z,5.22
2023-01-19T23:59:30.487Z,6.30
